Terminal Aerodrome Forecast
Issued by NWS

Home | Current Version | Previous Version | Text Only | Print | Product List | Glossary On
Versions: 1 2 3 4 5 6 7 8 9 10 11 12 13
000
FTUS42 TJSJ 260522
TAFJBQ
TAF
TJBQ 260522Z 2606/2706 10003KT P6SM SCT025 BKN090 OVC110
     FM261400 08016KT P6SM SCT025 BKN040
     FM262330 10010KT P6SM VCSH SCT030 SCT060
      AMD NOT SKED TIL 261100=

USA.gov is the U.S. government's official web portal to all federal, state and local government web resources and services.